sensor_id;sensor_type;location;lat;lon;timestamp;P1;durP1;ratioP1;P2;durP2;ratioP2
31378;SDS011;61664;48.112;11.662;2023-04-03T00:01:01;7.95;;;4.90;;
31378;SDS011;61664;48.112;11.662;2023-04-03T00:03:28;5.68;;;4.88;;
31378;SDS011;61664;48.112;11.662;2023-04-03T00:05:56;9.38;;;5.55;;
31378;SDS011;61664;48.112;11.662;2023-04-03T00:08:23;5.78;;;5.28;;
31378;SDS011;61664;48.112;11.662;2023-04-03T00:10:50;5.55;;;5.05;;
31378;SDS011;61664;48.112;11.662;2023-04-03T00:13:17;5.68;;;5.18;;
31378;SDS011;61664;48.112;11.662;2023-04-03T00:15:44;8.27;;;6.68;;
31378;SDS011;61664;48.112;11.662;2023-04-03T00:18:11;6.20;;;5.57;;
31378;SDS011;61664;48.112;11.662;2023-04-03T00:20:38;6.35;;;5.35;;
31378;SDS011;61664;48.112;11.662;2023-04-03T00:23:06;5.18;;;4.68;;
31378;SDS011;61664;48.112;11.662;2023-04-03T00:25:33;5.50;;;5.00;;
31378;SDS011;61664;48.112;11.662;2023-04-03T00:28:00;4.80;;;4.40;;
31378;SDS011;61664;48.112;11.662;2023-04-03T00:30:27;5.53;;;5.03;;
31378;SDS011;61664;48.112;11.662;2023-04-03T00:32:54;5.70;;;5.20;;
31378;SDS011;61664;48.112;11.662;2023-04-03T00:35:21;6.07;;;5.57;;
31378;SDS011;61664;48.112;11.662;2023-04-03T00:37:51;5.38;;;4.93;;
31378;SDS011;61664;48.112;11.662;2023-04-03T00:40:20;4.82;;;4.43;;
31378;SDS011;61664;48.112;11.662;2023-04-03T00:42:51;5.75;;;5.25;;
31378;SDS011;61664;48.112;11.662;2023-04-03T00:45:25;5.55;;;4.70;;
31378;SDS011;61664;48.112;11.662;2023-04-03T00:48:04;5.50;;;4.82;;
31378;SDS011;61664;48.112;11.662;2023-04-03T00:50:37;5.07;;;4.70;;
31378;SDS011;61664;48.112;11.662;2023-04-03T00:53:07;5.22;;;4.75;;
31378;SDS011;61664;48.112;11.662;2023-04-03T00:55:48;5.28;;;4.80;;
31378;SDS011;61664;48.112;11.662;2023-04-03T00:58:17;5.18;;;4.78;;
31378;SDS011;61664;48.112;11.662;2023-04-03T01:00:52;5.60;;;5.10;;
31378;SDS011;61664;48.112;11.662;2023-04-03T01:03:24;5.28;;;4.75;;
31378;SDS011;61664;48.112;11.662;2023-04-03T01:05:51;5.60;;;5.10;;
31378;SDS011;61664;48.112;11.662;2023-04-03T01:08:18;5.15;;;4.72;;
31378;SDS011;61664;48.112;11.662;2023-04-03T01:10:45;5.55;;;5.15;;
31378;SDS011;61664;48.112;11.662;2023-04-03T01:13:20;4.88;;;4.10;;
31378;SDS011;61664;48.112;11.662;2023-04-03T01:15:52;5.90;;;5.25;;
31378;SDS011;61664;48.112;11.662;2023-04-03T01:18:20;8.80;;;5.10;;
31378;SDS011;61664;48.112;11.662;2023-04-03T01:21:09;8.27;;;4.55;;
31378;SDS011;61664;48.112;11.662;2023-04-03T01:24:22;5.05;;;4.63;;
31378;SDS011;61664;48.112;11.662;2023-04-03T01:27:05;4.78;;;4.40;;
31378;SDS011;61664;48.112;11.662;2023-04-03T01:29:35;5.72;;;5.22;;
31378;SDS011;61664;48.112;11.662;2023-04-03T01:32:03;4.90;;;4.45;;
31378;SDS011;61664;48.112;11.662;2023-04-03T01:34:30;5.28;;;4.85;;
31378;SDS011;61664;48.112;11.662;2023-04-03T01:36:58;4.78;;;4.38;;
31378;SDS011;61664;48.112;11.662;2023-04-03T01:39:25;5.72;;;4.70;;
31378;SDS011;61664;48.112;11.662;2023-04-03T01:41:52;5.28;;;4.82;;
31378;SDS011;61664;48.112;11.662;2023-04-03T01:44:19;4.97;;;4.57;;
31378;SDS011;61664;48.112;11.662;2023-04-03T01:46:46;4.32;;;4.03;;
31378;SDS011;61664;48.112;11.662;2023-04-03T01:49:13;5.43;;;4.93;;
31378;SDS011;61664;48.112;11.662;2023-04-03T01:51:39;6.47;;;4.85;;
31378;SDS011;61664;48.112;11.662;2023-04-03T01:54:06;5.57;;;5.07;;
31378;SDS011;61664;48.112;11.662;2023-04-03T01:56:33;6.07;;;5.40;;
31378;SDS011;61664;48.112;11.662;2023-04-03T01:59:00;7.70;;;4.85;;
31378;SDS011;61664;48.112;11.662;2023-04-03T02:01:27;5.85;;;5.07;;
31378;SDS011;61664;48.112;11.662;2023-04-03T02:03:54;4.65;;;4.35;;
31378;SDS011;61664;48.112;11.662;2023-04-03T02:06:21;5.60;;;4.72;;
31378;SDS011;61664;48.112;11.662;2023-04-03T02:08:47;5.15;;;4.70;;
31378;SDS011;61664;48.112;11.662;2023-04-03T02:11:14;5.40;;;4.95;;
31378;SDS011;61664;48.112;11.662;2023-04-03T02:13:42;5.10;;;4.70;;
31378;SDS011;61664;48.112;11.662;2023-04-03T02:16:09;5.43;;;4.93;;
31378;SDS011;61664;48.112;11.662;2023-04-03T02:18:37;6.10;;;5.60;;
31378;SDS011;61664;48.112;11.662;2023-04-03T02:21:04;5.13;;;4.70;;
31378;SDS011;61664;48.112;11.662;2023-04-03T02:23:34;4.78;;;4.38;;
31378;SDS011;61664;48.112;11.662;2023-04-03T02:26:07;5.45;;;5.00;;
31378;SDS011;61664;48.112;11.662;2023-04-03T02:28:39;5.65;;;4.40;;
31378;SDS011;61664;48.112;11.662;2023-04-03T02:31:07;5.88;;;5.00;;
31378;SDS011;61664;48.112;11.662;2023-04-03T02:33:37;6.38;;;4.60;;
31378;SDS011;61664;48.112;11.662;2023-04-03T02:36:05;4.38;;;4.07;;
31378;SDS011;61664;48.112;11.662;2023-04-03T02:38:33;5.25;;;4.75;;
31378;SDS011;61664;48.112;11.662;2023-04-03T02:41:02;4.75;;;4.45;;
31378;SDS011;61664;48.112;11.662;2023-04-03T02:43:31;5.10;;;4.60;;
31378;SDS011;61664;48.112;11.662;2023-04-03T02:45:58;5.18;;;4.78;;
31378;SDS011;61664;48.112;11.662;2023-04-03T02:48:25;4.15;;;3.85;;
31378;SDS011;61664;48.112;11.662;2023-04-03T02:50:52;4.90;;;4.50;;
31378;SDS011;61664;48.112;11.662;2023-04-03T02:53:19;4.47;;;4.07;;
31378;SDS011;61664;48.112;11.662;2023-04-03T02:55:47;4.72;;;4.32;;
31378;SDS011;61664;48.112;11.662;2023-04-03T02:58:14;4.70;;;4.30;;
31378;SDS011;61664;48.112;11.662;2023-04-03T03:00:41;5.35;;;4.00;;
31378;SDS011;61664;48.112;11.662;2023-04-03T03:03:08;4.68;;;4.15;;
31378;SDS011;61664;48.112;11.662;2023-04-03T03:05:35;4.40;;;4.05;;
31378;SDS011;61664;48.112;11.662;2023-04-03T03:08:02;4.10;;;3.80;;
31378;SDS011;61664;48.112;11.662;2023-04-03T03:10:29;3.92;;;3.60;;
31378;SDS011;61664;48.112;11.662;2023-04-03T03:12:56;4.30;;;4.00;;
31378;SDS011;61664;48.112;11.662;2023-04-03T03:15:23;3.33;;;2.97;;
31378;SDS011;61664;48.112;11.662;2023-04-03T03:17:50;4.22;;;3.88;;
31378;SDS011;61664;48.112;11.662;2023-04-03T03:20:17;3.88;;;3.58;;
31378;SDS011;61664;48.112;11.662;2023-04-03T03:22:44;3.60;;;3.33;;
31378;SDS011;61664;48.112;11.662;2023-04-03T03:25:11;3.33;;;3.13;;
31378;SDS011;61664;48.112;11.662;2023-04-03T03:27:38;4.00;;;3.67;;
31378;SDS011;61664;48.112;11.662;2023-04-03T03:30:05;3.15;;;2.95;;
31378;SDS011;61664;48.112;11.662;2023-04-03T03:32:32;3.40;;;3.20;;
31378;SDS011;61664;48.112;11.662;2023-04-03T03:34:59;4.35;;;4.05;;
31378;SDS011;61664;48.112;11.662;2023-04-03T03:37:26;3.70;;;3.40;;
31378;SDS011;61664;48.112;11.662;2023-04-03T03:39:53;3.33;;;3.13;;
31378;SDS011;61664;48.112;11.662;2023-04-03T03:42:20;3.85;;;3.55;;
31378;SDS011;61664;48.112;11.662;2023-04-03T03:44:48;5.50;;;3.38;;
31378;SDS011;61664;48.112;11.662;2023-04-03T03:47:15;3.70;;;3.50;;
31378;SDS011;61664;48.112;11.662;2023-04-03T03:49:42;3.20;;;3.00;;
31378;SDS011;61664;48.112;11.662;2023-04-03T03:52:09;3.10;;;2.90;;
31378;SDS011;61664;48.112;11.662;2023-04-03T03:54:36;4.57;;;2.70;;
31378;SDS011;61664;48.112;11.662;2023-04-03T03:57:04;3.08;;;2.88;;
31378;SDS011;61664;48.112;11.662;2023-04-03T03:59:31;3.33;;;3.13;;
31378;SDS011;61664;48.112;11.662;2023-04-03T04:01:58;2.97;;;2.70;;
31378;SDS011;61664;48.112;11.662;2023-04-03T04:04:25;4.20;;;2.85;;
31378;SDS011;61664;48.112;11.662;2023-04-03T04:06:52;3.30;;;3.10;;
31378;SDS011;61664;48.112;11.662;2023-04-03T04:09:19;2.92;;;2.72;;
31378;SDS011;61664;48.112;11.662;2023-04-03T04:11:46;3.17;;;2.97;;
31378;SDS011;61664;48.112;11.662;2023-04-03T04:14:13;3.00;;;2.80;;
31378;SDS011;61664;48.112;11.662;2023-04-03T04:16:39;3.22;;;3.03;;
31378;SDS011;61664;48.112;11.662;2023-04-03T04:19:06;3.08;;;2.88;;
31378;SDS011;61664;48.112;11.662;2023-04-03T04:21:34;2.72;;;2.60;;
31378;SDS011;61664;48.112;11.662;2023-04-03T04:24:01;3.70;;;3.40;;
31378;SDS011;61664;48.112;11.662;2023-04-03T04:26:28;3.33;;;3.13;;
31378;SDS011;61664;48.112;11.662;2023-04-03T04:28:55;3.33;;;3.08;;
31378;SDS011;61664;48.112;11.662;2023-04-03T04:31:22;2.92;;;2.72;;
31378;SDS011;61664;48.112;11.662;2023-04-03T04:33:49;3.25;;;2.97;;
31378;SDS011;61664;48.112;11.662;2023-04-03T04:36:16;3.00;;;2.80;;
31378;SDS011;61664;48.112;11.662;2023-04-03T04:38:43;3.20;;;2.90;;
31378;SDS011;61664;48.112;11.662;2023-04-03T04:41:10;2.88;;;2.67;;
31378;SDS011;61664;48.112;11.662;2023-04-03T04:43:37;2.97;;;2.78;;
31378;SDS011;61664;48.112;11.662;2023-04-03T04:46:05;4.18;;;2.75;;
31378;SDS011;61664;48.112;11.662;2023-04-03T04:48:38;7.15;;;2.92;;
31378;SDS011;61664;48.112;11.662;2023-04-03T04:51:06;3.08;;;2.88;;
31378;SDS011;61664;48.112;11.662;2023-04-03T04:53:33;3.65;;;2.55;;
31378;SDS011;61664;48.112;11.662;2023-04-03T04:56:01;2.60;;;2.42;;
31378;SDS011;61664;48.112;11.662;2023-04-03T04:58:28;2.67;;;2.47;;
31378;SDS011;61664;48.112;11.662;2023-04-03T05:01:02;3.95;;;3.47;;
31378;SDS011;61664;48.112;11.662;2023-04-03T05:03:32;3.00;;;2.80;;
31378;SDS011;61664;48.112;11.662;2023-04-03T05:05:59;3.35;;;3.05;;
31378;SDS011;61664;48.112;11.662;2023-04-03T05:08:27;2.67;;;2.47;;
31378;SDS011;61664;48.112;11.662;2023-04-03T05:10:54;2.90;;;2.63;;
31378;SDS011;61664;48.112;11.662;2023-04-03T05:13:21;2.83;;;2.63;;
31378;SDS011;61664;48.112;11.662;2023-04-03T05:15:48;2.97;;;2.78;;
31378;SDS011;61664;48.112;11.662;2023-04-03T05:18:15;3.65;;;3.33;;
31378;SDS011;61664;48.112;11.662;2023-04-03T05:20:42;2.83;;;2.63;;
31378;SDS011;61664;48.112;11.662;2023-04-03T05:23:09;3.08;;;2.88;;
31378;SDS011;61664;48.112;11.662;2023-04-03T05:25:37;2.97;;;2.78;;
31378;SDS011;61664;48.112;11.662;2023-04-03T05:28:05;3.00;;;2.80;;
31378;SDS011;61664;48.112;11.662;2023-04-03T05:30:34;2.90;;;2.70;;
31378;SDS011;61664;48.112;11.662;2023-04-03T05:33:00;2.65;;;2.53;;
31378;SDS011;61664;48.112;11.662;2023-04-03T05:35:28;2.67;;;2.47;;
31378;SDS011;61664;48.112;11.662;2023-04-03T05:37:55;2.90;;;2.70;;
31378;SDS011;61664;48.112;11.662;2023-04-03T05:40:22;2.67;;;2.47;;
31378;SDS011;61664;48.112;11.662;2023-04-03T05:42:49;2.90;;;2.70;;
31378;SDS011;61664;48.112;11.662;2023-04-03T05:45:16;6.45;;;2.47;;
31378;SDS011;61664;48.112;11.662;2023-04-03T05:47:43;2.80;;;2.70;;
31378;SDS011;61664;48.112;11.662;2023-04-03T05:50:10;3.10;;;2.90;;
31378;SDS011;61664;48.112;11.662;2023-04-03T05:52:39;2.70;;;2.50;;
31378;SDS011;61664;48.112;11.662;2023-04-03T05:55:10;4.13;;;3.60;;
31378;SDS011;61664;48.112;11.662;2023-04-03T05:57:37;3.08;;;2.88;;
31378;SDS011;61664;48.112;11.662;2023-04-03T06:00:05;3.10;;;2.90;;
31378;SDS011;61664;48.112;11.662;2023-04-03T06:02:35;3.28;;;3.08;;
31378;SDS011;61664;48.112;11.662;2023-04-03T06:05:02;2.83;;;2.58;;
31378;SDS011;61664;48.112;11.662;2023-04-03T06:07:30;2.60;;;2.50;;
31378;SDS011;61664;48.112;11.662;2023-04-03T06:09:57;2.75;;;2.55;;
31378;SDS011;61664;48.112;11.662;2023-04-03T06:12:24;2.53;;;2.33;;
31378;SDS011;61664;48.112;11.662;2023-04-03T06:14:51;2.90;;;2.65;;
31378;SDS011;61664;48.112;11.662;2023-04-03T06:17:18;3.00;;;2.80;;
31378;SDS011;61664;48.112;11.662;2023-04-03T06:19:45;2.75;;;2.55;;
31378;SDS011;61664;48.112;11.662;2023-04-03T06:22:12;3.15;;;2.53;;
31378;SDS011;61664;48.112;11.662;2023-04-03T06:24:40;2.95;;;2.75;;
31378;SDS011;61664;48.112;11.662;2023-04-03T06:27:07;3.28;;;2.83;;
31378;SDS011;61664;48.112;11.662;2023-04-03T06:29:35;3.10;;;2.90;;
31378;SDS011;61664;48.112;11.662;2023-04-03T06:32:03;2.92;;;2.72;;
31378;SDS011;61664;48.112;11.662;2023-04-03T06:34:30;4.07;;;3.33;;
31378;SDS011;61664;48.112;11.662;2023-04-03T06:36:57;2.80;;;2.60;;
31378;SDS011;61664;48.112;11.662;2023-04-03T06:39:24;3.22;;;3.03;;
31378;SDS011;61664;48.112;11.662;2023-04-03T06:41:51;3.22;;;3.03;;
31378;SDS011;61664;48.112;11.662;2023-04-03T06:44:18;3.55;;;3.20;;
31378;SDS011;61664;48.112;11.662;2023-04-03T06:46:45;3.00;;;2.80;;
31378;SDS011;61664;48.112;11.662;2023-04-03T06:49:12;3.05;;;2.85;;
31378;SDS011;61664;48.112;11.662;2023-04-03T06:51:40;3.33;;;2.97;;
31378;SDS011;61664;48.112;11.662;2023-04-03T06:54:07;3.00;;;2.80;;
31378;SDS011;61664;48.112;11.662;2023-04-03T06:56:34;3.10;;;2.90;;
31378;SDS011;61664;48.112;11.662;2023-04-03T06:59:02;3.30;;;2.85;;
31378;SDS011;61664;48.112;11.662;2023-04-03T07:01:29;2.92;;;2.72;;
31378;SDS011;61664;48.112;11.662;2023-04-03T07:03:57;2.80;;;2.60;;
31378;SDS011;61664;48.112;11.662;2023-04-03T07:06:24;3.50;;;3.28;;
31378;SDS011;61664;48.112;11.662;2023-04-03T07:08:54;2.90;;;2.63;;
31378;SDS011;61664;48.112;11.662;2023-04-03T07:11:21;5.07;;;2.72;;
31378;SDS011;61664;48.112;11.662;2023-04-03T07:13:49;3.65;;;3.13;;
31378;SDS011;61664;48.112;11.662;2023-04-03T07:16:17;3.85;;;3.30;;
31378;SDS011;61664;48.112;11.662;2023-04-03T07:18:44;3.35;;;3.10;;
31378;SDS011;61664;48.112;11.662;2023-04-03T07:21:12;2.72;;;2.53;;
31378;SDS011;61664;48.112;11.662;2023-04-03T07:23:39;4.20;;;3.38;;
31378;SDS011;61664;48.112;11.662;2023-04-03T07:26:06;3.33;;;3.13;;
31378;SDS011;61664;48.112;11.662;2023-04-03T07:28:34;3.05;;;2.85;;
31378;SDS011;61664;48.112;11.662;2023-04-03T07:31:04;5.32;;;3.42;;
31378;SDS011;61664;48.112;11.662;2023-04-03T07:33:39;3.70;;;3.40;;
31378;SDS011;61664;48.112;11.662;2023-04-03T07:36:07;3.15;;;2.95;;
31378;SDS011;61664;48.112;11.662;2023-04-03T07:38:37;5.15;;;2.95;;
31378;SDS011;61664;48.112;11.662;2023-04-03T07:41:04;3.42;;;3.15;;
31378;SDS011;61664;48.112;11.662;2023-04-03T07:43:31;6.22;;;3.83;;
31378;SDS011;61664;48.112;11.662;2023-04-03T07:46:00;3.30;;;3.10;;
31378;SDS011;61664;48.112;11.662;2023-04-03T07:48:27;3.80;;;3.22;;
31378;SDS011;61664;48.112;11.662;2023-04-03T07:50:58;4.75;;;4.25;;
31378;SDS011;61664;48.112;11.662;2023-04-03T07:53:27;3.50;;;3.20;;
31378;SDS011;61664;48.112;11.662;2023-04-03T07:55:56;3.70;;;3.50;;
31378;SDS011;61664;48.112;11.662;2023-04-03T07:58:24;3.88;;;3.50;;
31378;SDS011;61664;48.112;11.662;2023-04-03T08:00:51;3.10;;;2.90;;
31378;SDS011;61664;48.112;11.662;2023-04-03T08:03:18;5.03;;;3.90;;
31378;SDS011;61664;48.112;11.662;2023-04-03T08:05:47;3.45;;;3.20;;
31378;SDS011;61664;48.112;11.662;2023-04-03T08:08:16;3.67;;;3.38;;
31378;SDS011;61664;48.112;11.662;2023-04-03T08:10:50;3.85;;;3.60;;
31378;SDS011;61664;48.112;11.662;2023-04-03T08:13:20;4.57;;;3.53;;
31378;SDS011;61664;48.112;11.662;2023-04-03T08:15:48;3.72;;;3.53;;
31378;SDS011;61664;48.112;11.662;2023-04-03T08:18:15;4.07;;;3.78;;
31378;SDS011;61664;48.112;11.662;2023-04-03T08:20:43;4.22;;;3.92;;
31378;SDS011;61664;48.112;11.662;2023-04-03T08:23:10;3.97;;;3.67;;
31378;SDS011;61664;48.112;11.662;2023-04-03T08:25:41;4.00;;;3.70;;
31378;SDS011;61664;48.112;11.662;2023-04-03T08:28:09;3.95;;;3.65;;
31378;SDS011;61664;48.112;11.662;2023-04-03T08:30:41;4.45;;;4.15;;
31378;SDS011;61664;48.112;11.662;2023-04-03T08:33:09;7.13;;;4.40;;
31378;SDS011;61664;48.112;11.662;2023-04-03T08:35:40;7.97;;;4.80;;
31378;SDS011;61664;48.112;11.662;2023-04-03T08:38:08;4.50;;;4.20;;
31378;SDS011;61664;48.112;11.662;2023-04-03T08:40:36;5.10;;;4.60;;
31378;SDS011;61664;48.112;11.662;2023-04-03T08:43:07;4.35;;;3.97;;
31378;SDS011;61664;48.112;11.662;2023-04-03T08:46:13;4.70;;;4.20;;
31378;SDS011;61664;48.112;11.662;2023-04-03T08:48:44;4.35;;;4.00;;
31378;SDS011;61664;48.112;11.662;2023-04-03T08:51:17;4.30;;;3.90;;
31378;SDS011;61664;48.112;11.662;2023-04-03T08:53:54;4.30;;;4.00;;
31378;SDS011;61664;48.112;11.662;2023-04-03T08:56:47;5.20;;;4.80;;
31378;SDS011;61664;48.112;11.662;2023-04-03T08:59:15;4.28;;;3.97;;
31378;SDS011;61664;48.112;11.662;2023-04-03T09:01:54;5.18;;;4.72;;
31378;SDS011;61664;48.112;11.662;2023-04-03T09:04:24;5.50;;;5.05;;
31378;SDS011;61664;48.112;11.662;2023-04-03T09:06:54;4.88;;;4.47;;
31378;SDS011;61664;48.112;11.662;2023-04-03T09:09:33;4.70;;;4.30;;
31378;SDS011;61664;48.112;11.662;2023-04-03T09:15:02;4.50;;;4.10;;
31378;SDS011;61664;48.112;11.662;2023-04-03T09:23:48;3.80;;;3.60;;
31378;SDS011;61664;48.112;11.662;2023-04-03T09:26:24;3.75;;;3.55;;
31378;SDS011;61664;48.112;11.662;2023-04-03T09:28:57;4.57;;;3.40;;
31378;SDS011;61664;48.112;11.662;2023-04-03T09:31:35;3.90;;;3.60;;
31378;SDS011;61664;48.112;11.662;2023-04-03T09:34:08;3.85;;;3.55;;
31378;SDS011;61664;48.112;11.662;2023-04-03T09:36:49;3.53;;;3.22;;
31378;SDS011;61664;48.112;11.662;2023-04-03T09:39:20;3.72;;;3.53;;
31378;SDS011;61664;48.112;11.662;2023-04-03T09:41:57;3.65;;;3.28;;
31378;SDS011;61664;48.112;11.662;2023-04-03T09:44:31;3.10;;;2.90;;
31378;SDS011;61664;48.112;11.662;2023-04-03T09:47:22;4.53;;;3.38;;
31378;SDS011;61664;48.112;11.662;2023-04-03T09:55:19;3.50;;;3.30;;
31378;SDS011;61664;48.112;11.662;2023-04-03T09:57:56;3.78;;;3.50;;
31378;SDS011;61664;48.112;11.662;2023-04-03T10:00:31;3.53;;;3.22;;
31378;SDS011;61664;48.112;11.662;2023-04-03T10:03:04;4.25;;;3.90;;
31378;SDS011;61664;48.112;11.662;2023-04-03T10:05:48;3.50;;;3.20;;
31378;SDS011;61664;48.112;11.662;2023-04-03T10:08:21;3.47;;;3.17;;
31378;SDS011;61664;48.112;11.662;2023-04-03T10:11:08;3.38;;;3.17;;
31378;SDS011;61664;48.112;11.662;2023-04-03T10:16:28;2.83;;;2.63;;
31378;SDS011;61664;48.112;11.662;2023-04-03T10:25:21;3.42;;;3.13;;
31378;SDS011;61664;48.112;11.662;2023-04-03T10:28:09;3.65;;;3.42;;
31378;SDS011;61664;48.112;11.662;2023-04-03T10:30:56;3.55;;;3.25;;
31378;SDS011;61664;48.112;11.662;2023-04-03T10:43:09;3.35;;;3.15;;
31378;SDS011;61664;48.112;11.662;2023-04-03T10:45:52;2.95;;;2.75;;
31378;SDS011;61664;48.112;11.662;2023-04-03T10:51:46;2.45;;;2.25;;
31378;SDS011;61664;48.112;11.662;2023-04-03T10:55:04;3.33;;;2.67;;
31378;SDS011;61664;48.112;11.662;2023-04-03T11:00:14;3.13;;;2.92;;
31378;SDS011;61664;48.112;11.662;2023-04-03T11:02:51;2.45;;;2.35;;
31378;SDS011;61664;48.112;11.662;2023-04-03T11:05:45;3.03;;;2.80;;
31378;SDS011;61664;48.112;11.662;2023-04-03T11:08:23;2.55;;;2.35;;
31378;SDS011;61664;48.112;11.662;2023-04-03T11:10:53;2.78;;;2.58;;
31378;SDS011;61664;48.112;11.662;2023-04-03T11:13:31;2.90;;;2.58;;
31378;SDS011;61664;48.112;11.662;2023-04-03T11:16:13;2.22;;;2.13;;
31378;SDS011;61664;48.112;11.662;2023-04-03T11:19:12;3.30;;;2.17;;
31378;SDS011;61664;48.112;11.662;2023-04-03T11:21:52;2.72;;;2.50;;
31378;SDS011;61664;48.112;11.662;2023-04-03T11:24:27;2.47;;;2.20;;
31378;SDS011;61664;48.112;11.662;2023-04-03T11:26:59;2.20;;;2.05;;
31378;SDS011;61664;48.112;11.662;2023-04-03T11:29:33;2.13;;;1.92;;
31378;SDS011;61664;48.112;11.662;2023-04-03T11:34:52;4.78;;;2.20;;
31378;SDS011;61664;48.112;11.662;2023-04-03T11:37:31;2.45;;;2.13;;
31378;SDS011;61664;48.112;11.662;2023-04-03T11:40:06;1.92;;;1.70;;
31378;SDS011;61664;48.112;11.662;2023-04-03T11:43:07;1.85;;;1.75;;
31378;SDS011;61664;48.112;11.662;2023-04-03T11:50:55;2.28;;;1.83;;
31378;SDS011;61664;48.112;11.662;2023-04-03T11:53:28;2.10;;;1.52;;
31378;SDS011;61664;48.112;11.662;2023-04-03T12:01:47;1.77;;;1.50;;
31378;SDS011;61664;48.112;11.662;2023-04-03T12:04:23;1.67;;;1.42;;
31378;SDS011;61664;48.112;11.662;2023-04-03T12:07:00;1.85;;;1.70;;
31378;SDS011;61664;48.112;11.662;2023-04-03T12:29:55;1.40;;;1.25;;
31378;SDS011;61664;48.112;11.662;2023-04-03T12:32:36;1.92;;;1.60;;
31378;SDS011;61664;48.112;11.662;2023-04-03T12:35:48;1.42;;;1.33;;
31378;SDS011;61664;48.112;11.662;2023-04-03T12:38:41;1.67;;;1.58;;
31378;SDS011;61664;48.112;11.662;2023-04-03T12:41:24;1.40;;;1.30;;
31378;SDS011;61664;48.112;11.662;2023-04-03T12:44:45;1.50;;;1.40;;
31378;SDS011;61664;48.112;11.662;2023-04-03T12:47:38;2.10;;;1.90;;
31378;SDS011;61664;48.112;11.662;2023-04-03T12:50:32;1.63;;;1.48;;
31378;SDS011;61664;48.112;11.662;2023-04-03T12:53:01;1.83;;;1.50;;
31378;SDS011;61664;48.112;11.662;2023-04-03T12:55:57;1.63;;;1.52;;
31378;SDS011;61664;48.112;11.662;2023-04-03T12:58:44;1.48;;;1.38;;
31378;SDS011;61664;48.112;11.662;2023-04-03T13:01:13;1.05;;;1.05;;
31378;SDS011;61664;48.112;11.662;2023-04-03T13:03:45;1.50;;;1.35;;
31378;SDS011;61664;48.112;11.662;2023-04-03T13:06:26;1.05;;;1.05;;
31378;SDS011;61664;48.112;11.662;2023-04-03T13:09:00;1.80;;;1.60;;
31378;SDS011;61664;48.112;11.662;2023-04-03T13:11:30;1.80;;;1.70;;
31378;SDS011;61664;48.112;11.662;2023-04-03T13:14:24;1.48;;;1.20;;
31378;SDS011;61664;48.112;11.662;2023-04-03T13:19:45;1.30;;;1.20;;
31378;SDS011;61664;48.112;11.662;2023-04-03T13:25:06;1.45;;;1.20;;
31378;SDS011;61664;48.112;11.662;2023-04-03T13:27:39;1.90;;;1.00;;
31378;SDS011;61664;48.112;11.662;2023-04-03T13:33:23;1.20;;;1.10;;
31378;SDS011;61664;48.112;11.662;2023-04-03T13:35:56;1.10;;;1.10;;
31378;SDS011;61664;48.112;11.662;2023-04-03T13:38:43;1.42;;;1.00;;
31378;SDS011;61664;48.112;11.662;2023-04-03T13:44:43;0.75;;;0.60;;
31378;SDS011;61664;48.112;11.662;2023-04-03T13:49:45;1.15;;;1.10;;
31378;SDS011;61664;48.112;11.662;2023-04-03T13:52:43;1.08;;;1.00;;
31378;SDS011;61664;48.112;11.662;2023-04-03T13:56:19;1.20;;;0.70;;
31378;SDS011;61664;48.112;11.662;2023-04-03T13:58:30;0.85;;;0.85;;
31378;SDS011;61664;48.112;11.662;2023-04-03T14:01:06;1.00;;;0.90;;
31378;SDS011;61664;48.112;11.662;2023-04-03T14:03:52;1.00;;;0.90;;
31378;SDS011;61664;48.112;11.662;2023-04-03T14:06:36;1.10;;;0.73;;
31378;SDS011;61664;48.112;11.662;2023-04-03T14:09:03;1.48;;;0.75;;
31378;SDS011;61664;48.112;11.662;2023-04-03T14:11:30;1.20;;;0.85;;
31378;SDS011;61664;48.112;11.662;2023-04-03T14:14:01;0.93;;;0.82;;
31378;SDS011;61664;48.112;11.662;2023-04-03T14:16:39;2.97;;;1.00;;
31378;SDS011;61664;48.112;11.662;2023-04-03T14:19:14;1.17;;;1.00;;
31378;SDS011;61664;48.112;11.662;2023-04-03T14:21:48;3.42;;;0.88;;
31378;SDS011;61664;48.112;11.662;2023-04-03T14:24:17;2.40;;;1.10;;
31378;SDS011;61664;48.112;11.662;2023-04-03T14:26:45;1.05;;;0.95;;
31378;SDS011;61664;48.112;11.662;2023-04-03T14:29:13;1.15;;;1.05;;
31378;SDS011;61664;48.112;11.662;2023-04-03T14:31:41;1.45;;;1.10;;
31378;SDS011;61664;48.112;11.662;2023-04-03T14:34:11;1.65;;;1.55;;
31378;SDS011;61664;48.112;11.662;2023-04-03T14:36:39;1.50;;;1.40;;
31378;SDS011;61664;48.112;11.662;2023-04-03T14:39:11;1.75;;;1.00;;
31378;SDS011;61664;48.112;11.662;2023-04-03T14:41:45;0.77;;;0.77;;
31378;SDS011;61664;48.112;11.662;2023-04-03T14:44:12;1.02;;;0.80;;
31378;SDS011;61664;48.112;11.662;2023-04-03T14:46:41;1.10;;;0.98;;
31378;SDS011;61664;48.112;11.662;2023-04-03T14:49:22;1.00;;;0.90;;
31378;SDS011;61664;48.112;11.662;2023-04-03T14:51:58;1.05;;;0.95;;
31378;SDS011;61664;48.112;11.662;2023-04-03T14:54:25;1.30;;;1.07;;
31378;SDS011;61664;48.112;11.662;2023-04-03T14:56:54;0.80;;;0.80;;
31378;SDS011;61664;48.112;11.662;2023-04-03T14:59:24;1.07;;;0.97;;
31378;SDS011;61664;48.112;11.662;2023-04-03T15:01:52;1.10;;;1.00;;
31378;SDS011;61664;48.112;11.662;2023-04-03T15:04:20;2.63;;;0.70;;
31378;SDS011;61664;48.112;11.662;2023-04-03T15:06:48;1.30;;;1.00;;
31378;SDS011;61664;48.112;11.662;2023-04-03T15:09:25;1.42;;;1.13;;
31378;SDS011;61664;48.112;11.662;2023-04-03T15:11:54;1.38;;;0.85;;
31378;SDS011;61664;48.112;11.662;2023-04-03T15:14:21;0.80;;;0.80;;
31378;SDS011;61664;48.112;11.662;2023-04-03T15:17:02;0.60;;;0.60;;
31378;SDS011;61664;48.112;11.662;2023-04-03T15:19:35;0.80;;;0.55;;
31378;SDS011;61664;48.112;11.662;2023-04-03T15:22:04;0.70;;;0.70;;
31378;SDS011;61664;48.112;11.662;2023-04-03T15:24:31;1.05;;;0.55;;
31378;SDS011;61664;48.112;11.662;2023-04-03T15:26:59;1.13;;;0.98;;
31378;SDS011;61664;48.112;11.662;2023-04-03T15:29:27;0.88;;;0.88;;
31378;SDS011;61664;48.112;11.662;2023-04-03T15:31:54;2.08;;;0.88;;
31378;SDS011;61664;48.112;11.662;2023-04-03T15:34:21;2.50;;;0.77;;
31378;SDS011;61664;48.112;11.662;2023-04-03T15:36:49;0.70;;;0.70;;
31378;SDS011;61664;48.112;11.662;2023-04-03T15:39:19;0.60;;;0.60;;
31378;SDS011;61664;48.112;11.662;2023-04-03T15:41:47;0.60;;;0.60;;
31378;SDS011;61664;48.112;11.662;2023-04-03T15:44:14;0.80;;;0.80;;
31378;SDS011;61664;48.112;11.662;2023-04-03T15:46:47;1.80;;;0.80;;
31378;SDS011;61664;48.112;11.662;2023-04-03T15:49:18;0.60;;;0.60;;
31378;SDS011;61664;48.112;11.662;2023-04-03T15:51:47;0.90;;;0.60;;
31378;SDS011;61664;48.112;11.662;2023-04-03T15:54:14;1.85;;;0.70;;
31378;SDS011;61664;48.112;11.662;2023-04-03T15:56:42;0.80;;;0.80;;
31378;SDS011;61664;48.112;11.662;2023-04-03T15:59:09;0.70;;;0.43;;
31378;SDS011;61664;48.112;11.662;2023-04-03T16:01:37;1.27;;;0.88;;
31378;SDS011;61664;48.112;11.662;2023-04-03T16:04:05;0.80;;;0.60;;
31378;SDS011;61664;48.112;11.662;2023-04-03T16:06:34;0.90;;;0.63;;
31378;SDS011;61664;48.112;11.662;2023-04-03T16:09:03;0.95;;;0.95;;
31378;SDS011;61664;48.112;11.662;2023-04-03T16:11:31;0.70;;;0.52;;
31378;SDS011;61664;48.112;11.662;2023-04-03T16:13:58;0.95;;;0.60;;
31378;SDS011;61664;48.112;11.662;2023-04-03T16:16:25;0.95;;;0.70;;
31378;SDS011;61664;48.112;11.662;2023-04-03T16:18:54;0.60;;;0.60;;
31378;SDS011;61664;48.112;11.662;2023-04-03T16:21:22;1.33;;;0.75;;
31378;SDS011;61664;48.112;11.662;2023-04-03T16:23:50;0.75;;;0.60;;
31378;SDS011;61664;48.112;11.662;2023-04-03T16:26:17;0.65;;;0.60;;